sensor_id;sensor_type;location;lat;lon;timestamp;temperature;humidity
26103;DHT22;69760;49.380;8.998;2023-10-31T00:01:21;12.90;99.90
26103;DHT22;69760;49.380;8.998;2023-10-31T00:03:47;13.00;99.90
26103;DHT22;69760;49.380;8.998;2023-10-31T00:06:13;12.90;99.90
26103;DHT22;69760;49.380;8.998;2023-10-31T00:08:38;13.00;99.90
26103;DHT22;69760;49.380;8.998;2023-10-31T00:11:04;13.00;99.90
26103;DHT22;69760;49.380;8.998;2023-10-31T00:13:30;13.00;99.90
26103;DHT22;69760;49.380;8.998;2023-10-31T00:15:55;13.10;99.90
26103;DHT22;69760;49.380;8.998;2023-10-31T00:18:21;13.10;99.90
26103;DHT22;69760;49.380;8.998;2023-10-31T00:20:47;13.10;99.90
26103;DHT22;69760;49.380;8.998;2023-10-31T00:23:13;13.00;99.90
26103;DHT22;69760;49.380;8.998;2023-10-31T00:25:39;13.00;99.90
26103;DHT22;69760;49.380;8.998;2023-10-31T00:28:04;13.00;99.90
26103;DHT22;69760;49.380;8.998;2023-10-31T00:30:30;13.00;99.90
26103;DHT22;69760;49.380;8.998;2023-10-31T00:32:55;13.00;99.90
26103;DHT22;69760;49.380;8.998;2023-10-31T00:35:21;13.00;99.90
26103;DHT22;69760;49.380;8.998;2023-10-31T00:37:47;13.00;99.90
26103;DHT22;69760;49.380;8.998;2023-10-31T00:40:12;12.90;99.90
26103;DHT22;69760;49.380;8.998;2023-10-31T00:42:39;12.90;99.90
26103;DHT22;69760;49.380;8.998;2023-10-31T00:45:07;12.80;99.90
26103;DHT22;69760;49.380;8.998;2023-10-31T00:47:33;12.80;99.90
26103;DHT22;69760;49.380;8.998;2023-10-31T00:49:58;12.70;99.90
26103;DHT22;69760;49.380;8.998;2023-10-31T00:52:24;12.70;99.90
26103;DHT22;69760;49.380;8.998;2023-10-31T00:54:49;12.70;99.90
26103;DHT22;69760;49.380;8.998;2023-10-31T00:57:15;12.60;99.90
26103;DHT22;69760;49.380;8.998;2023-10-31T00:59:41;12.50;99.90
26103;DHT22;69760;49.380;8.998;2023-10-31T01:02:06;12.60;99.90
26103;DHT22;69760;49.380;8.998;2023-10-31T01:04:32;12.50;99.90
26103;DHT22;69760;49.380;8.998;2023-10-31T01:06:57;12.40;99.90
26103;DHT22;69760;49.380;8.998;2023-10-31T01:09:23;12.30;99.90
26103;DHT22;69760;49.380;8.998;2023-10-31T01:11:48;12.30;99.90
26103;DHT22;69760;49.380;8.998;2023-10-31T01:14:14;12.30;99.90
26103;DHT22;69760;49.380;8.998;2023-10-31T01:16:40;12.30;99.90
26103;DHT22;69760;49.380;8.998;2023-10-31T01:19:06;12.30;99.90
26103;DHT22;69760;49.380;8.998;2023-10-31T01:21:33;12.30;99.90
26103;DHT22;69760;49.380;8.998;2023-10-31T01:23:59;12.40;99.90
26103;DHT22;69760;49.380;8.998;2023-10-31T01:26:25;12.40;99.90
26103;DHT22;69760;49.380;8.998;2023-10-31T01:28:51;12.40;99.90
26103;DHT22;69760;49.380;8.998;2023-10-31T01:31:17;12.30;99.90
26103;DHT22;69760;49.380;8.998;2023-10-31T01:33:42;12.20;99.90
26103;DHT22;69760;49.380;8.998;2023-10-31T01:36:08;12.20;99.90
26103;DHT22;69760;49.380;8.998;2023-10-31T01:38:36;12.20;99.90
26103;DHT22;69760;49.380;8.998;2023-10-31T01:41:02;12.20;99.90
26103;DHT22;69760;49.380;8.998;2023-10-31T01:45:56;12.00;99.90
26103;DHT22;69760;49.380;8.998;2023-10-31T01:48:22;12.00;99.90
26103;DHT22;69760;49.380;8.998;2023-10-31T01:50:49;12.00;99.90
26103;DHT22;69760;49.380;8.998;2023-10-31T01:53:15;12.00;99.90
26103;DHT22;69760;49.380;8.998;2023-10-31T01:55:41;12.00;99.90
26103;DHT22;69760;49.380;8.998;2023-10-31T01:58:08;12.00;99.90
26103;DHT22;69760;49.380;8.998;2023-10-31T02:00:34;11.90;99.90
26103;DHT22;69760;49.380;8.998;2023-10-31T02:03:01;11.90;99.90
26103;DHT22;69760;49.380;8.998;2023-10-31T02:05:27;11.80;99.90
26103;DHT22;69760;49.380;8.998;2023-10-31T02:07:54;11.70;99.90
26103;DHT22;69760;49.380;8.998;2023-10-31T02:10:19;11.80;99.90
26103;DHT22;69760;49.380;8.998;2023-10-31T02:12:45;11.70;99.90
26103;DHT22;69760;49.380;8.998;2023-10-31T02:15:10;11.80;99.90
26103;DHT22;69760;49.380;8.998;2023-10-31T02:17:36;11.70;99.90
26103;DHT22;69760;49.380;8.998;2023-10-31T02:20:02;11.70;99.90
26103;DHT22;69760;49.380;8.998;2023-10-31T02:22:28;11.80;99.90
26103;DHT22;69760;49.380;8.998;2023-10-31T02:24:53;11.80;99.90
26103;DHT22;69760;49.380;8.998;2023-10-31T02:27:19;11.80;99.90
26103;DHT22;69760;49.380;8.998;2023-10-31T02:29:44;11.80;99.90
26103;DHT22;69760;49.380;8.998;2023-10-31T02:32:10;11.80;99.90
26103;DHT22;69760;49.380;8.998;2023-10-31T02:34:35;11.80;99.90
26103;DHT22;69760;49.380;8.998;2023-10-31T02:37:01;11.80;99.90
26103;DHT22;69760;49.380;8.998;2023-10-31T02:39:27;11.80;99.90
26103;DHT22;69760;49.380;8.998;2023-10-31T02:41:52;11.80;99.90
26103;DHT22;69760;49.380;8.998;2023-10-31T02:44:18;11.80;99.90
26103;DHT22;69760;49.380;8.998;2023-10-31T02:46:43;11.80;99.90
26103;DHT22;69760;49.380;8.998;2023-10-31T02:49:09;11.70;99.90
26103;DHT22;69760;49.380;8.998;2023-10-31T02:51:35;11.70;99.90
26103;DHT22;69760;49.380;8.998;2023-10-31T02:54:01;11.70;99.90
26103;DHT22;69760;49.380;8.998;2023-10-31T02:56:26;11.70;99.90
26103;DHT22;69760;49.380;8.998;2023-10-31T02:58:52;11.60;99.90
26103;DHT22;69760;49.380;8.998;2023-10-31T03:01:17;11.70;99.90
26103;DHT22;69760;49.380;8.998;2023-10-31T03:03:45;11.70;99.90
26103;DHT22;69760;49.380;8.998;2023-10-31T03:06:11;11.60;99.90
26103;DHT22;69760;49.380;8.998;2023-10-31T03:08:36;11.60;99.90
26103;DHT22;69760;49.380;8.998;2023-10-31T03:11:02;11.60;99.90
26103;DHT22;69760;49.380;8.998;2023-10-31T03:13:27;11.60;99.90
26103;DHT22;69760;49.380;8.998;2023-10-31T03:15:53;11.60;99.90
26103;DHT22;69760;49.380;8.998;2023-10-31T03:18:18;11.60;99.90
26103;DHT22;69760;49.380;8.998;2023-10-31T03:20:45;11.60;99.90
26103;DHT22;69760;49.380;8.998;2023-10-31T03:23:11;11.60;99.90
26103;DHT22;69760;49.380;8.998;2023-10-31T03:25:37;11.60;99.90
26103;DHT22;69760;49.380;8.998;2023-10-31T03:28:03;11.60;99.90
26103;DHT22;69760;49.380;8.998;2023-10-31T03:30:29;11.60;99.90
26103;DHT22;69760;49.380;8.998;2023-10-31T03:32:54;11.60;99.90
26103;DHT22;69760;49.380;8.998;2023-10-31T03:35:20;11.50;99.90
26103;DHT22;69760;49.380;8.998;2023-10-31T03:37:46;11.60;99.90
26103;DHT22;69760;49.380;8.998;2023-10-31T03:40:11;11.60;99.90
26103;DHT22;69760;49.380;8.998;2023-10-31T03:42:37;11.70;99.90
26103;DHT22;69760;49.380;8.998;2023-10-31T03:45:03;11.70;99.90
26103;DHT22;69760;49.380;8.998;2023-10-31T03:47:28;11.70;99.90
26103;DHT22;69760;49.380;8.998;2023-10-31T03:49:54;11.70;99.90
26103;DHT22;69760;49.380;8.998;2023-10-31T03:52:19;11.60;99.90
26103;DHT22;69760;49.380;8.998;2023-10-31T03:54:45;11.60;99.90
26103;DHT22;69760;49.380;8.998;2023-10-31T03:57:10;11.60;99.90
26103;DHT22;69760;49.380;8.998;2023-10-31T03:59:39;11.60;99.90
26103;DHT22;69760;49.380;8.998;2023-10-31T04:02:05;11.60;99.90
26103;DHT22;69760;49.380;8.998;2023-10-31T04:04:30;11.60;99.90
26103;DHT22;69760;49.380;8.998;2023-10-31T04:06:56;11.50;99.90
26103;DHT22;69760;49.380;8.998;2023-10-31T04:09:21;11.50;99.90
26103;DHT22;69760;49.380;8.998;2023-10-31T04:11:47;11.60;99.90
26103;DHT22;69760;49.380;8.998;2023-10-31T04:14:12;11.60;99.90
26103;DHT22;69760;49.380;8.998;2023-10-31T04:16:39;11.60;99.90
26103;DHT22;69760;49.380;8.998;2023-10-31T04:19:05;11.50;99.90
26103;DHT22;69760;49.380;8.998;2023-10-31T04:21:31;11.40;99.90
26103;DHT22;69760;49.380;8.998;2023-10-31T04:23:56;11.40;99.90
26103;DHT22;69760;49.380;8.998;2023-10-31T04:26:22;11.40;99.90
26103;DHT22;69760;49.380;8.998;2023-10-31T04:28:47;11.40;99.90
26103;DHT22;69760;49.380;8.998;2023-10-31T04:31:13;11.40;99.90
26103;DHT22;69760;49.380;8.998;2023-10-31T04:33:38;11.50;99.90
26103;DHT22;69760;49.380;8.998;2023-10-31T04:36:04;11.30;99.90
26103;DHT22;69760;49.380;8.998;2023-10-31T04:38:30;11.30;99.90
26103;DHT22;69760;49.380;8.998;2023-10-31T04:40:55;11.20;99.90
26103;DHT22;69760;49.380;8.998;2023-10-31T04:43:21;11.20;99.90
26103;DHT22;69760;49.380;8.998;2023-10-31T04:45:46;11.10;99.90
26103;DHT22;69760;49.380;8.998;2023-10-31T04:48:13;11.20;99.90
26103;DHT22;69760;49.380;8.998;2023-10-31T04:50:38;11.20;99.90
26103;DHT22;69760;49.380;8.998;2023-10-31T04:53:04;11.10;99.90
26103;DHT22;69760;49.380;8.998;2023-10-31T04:55:29;11.10;99.90
26103;DHT22;69760;49.380;8.998;2023-10-31T04:57:55;11.10;99.90
26103;DHT22;69760;49.380;8.998;2023-10-31T05:00:21;11.10;99.90
26103;DHT22;69760;49.380;8.998;2023-10-31T05:02:46;11.10;99.90
26103;DHT22;69760;49.380;8.998;2023-10-31T05:05:12;11.10;99.90
26103;DHT22;69760;49.380;8.998;2023-10-31T05:07:37;11.20;99.90
26103;DHT22;69760;49.380;8.998;2023-10-31T05:10:03;11.20;99.90
26103;DHT22;69760;49.380;8.998;2023-10-31T05:12:29;11.10;99.90
26103;DHT22;69760;49.380;8.998;2023-10-31T05:14:54;11.10;99.90
26103;DHT22;69760;49.380;8.998;2023-10-31T05:17:20;11.10;99.90
26103;DHT22;69760;49.380;8.998;2023-10-31T05:19:45;11.10;99.90
26103;DHT22;69760;49.380;8.998;2023-10-31T05:22:11;11.10;99.90
26103;DHT22;69760;49.380;8.998;2023-10-31T05:24:36;11.10;99.90
26103;DHT22;69760;49.380;8.998;2023-10-31T05:27:03;11.10;99.90
26103;DHT22;69760;49.380;8.998;2023-10-31T05:29:29;11.10;99.90
26103;DHT22;69760;49.380;8.998;2023-10-31T05:31:55;11.10;99.90
26103;DHT22;69760;49.380;8.998;2023-10-31T05:34:21;11.10;99.90
26103;DHT22;69760;49.380;8.998;2023-10-31T05:36:46;11.10;99.90
26103;DHT22;69760;49.380;8.998;2023-10-31T05:39:12;11.10;99.90
26103;DHT22;69760;49.380;8.998;2023-10-31T05:41:37;11.10;99.90
26103;DHT22;69760;49.380;8.998;2023-10-31T05:44:03;11.20;99.90
26103;DHT22;69760;49.380;8.998;2023-10-31T05:46:29;11.20;99.90
26103;DHT22;69760;49.380;8.998;2023-10-31T05:48:54;11.20;99.90
26103;DHT22;69760;49.380;8.998;2023-10-31T05:51:20;11.30;99.90
26103;DHT22;69760;49.380;8.998;2023-10-31T05:53:46;11.30;99.90
26103;DHT22;69760;49.380;8.998;2023-10-31T05:56:14;11.30;99.90
26103;DHT22;69760;49.380;8.998;2023-10-31T05:58:40;11.30;99.90
26103;DHT22;69760;49.380;8.998;2023-10-31T06:01:07;11.20;99.90
26103;DHT22;69760;49.380;8.998;2023-10-31T06:03:33;11.20;99.90
26103;DHT22;69760;49.380;8.998;2023-10-31T06:05:59;11.20;99.90
26103;DHT22;69760;49.380;8.998;2023-10-31T06:08:25;11.20;99.90
26103;DHT22;69760;49.380;8.998;2023-10-31T06:21:47;11.00;99.90
26103;DHT22;69760;49.380;8.998;2023-10-31T06:24:14;11.00;99.90
26103;DHT22;69760;49.380;8.998;2023-10-31T06:26:40;11.00;99.90
26103;DHT22;69760;49.380;8.998;2023-10-31T06:29:05;11.00;99.90
26103;DHT22;69760;49.380;8.998;2023-10-31T06:31:31;11.00;99.90
26103;DHT22;69760;49.380;8.998;2023-10-31T06:33:57;10.90;99.90
26103;DHT22;69760;49.380;8.998;2023-10-31T06:36:22;11.00;99.90
26103;DHT22;69760;49.380;8.998;2023-10-31T06:38:48;11.00;99.90
26103;DHT22;69760;49.380;8.998;2023-10-31T06:41:13;11.10;99.90
26103;DHT22;69760;49.380;8.998;2023-10-31T06:43:39;11.10;99.90
26103;DHT22;69760;49.380;8.998;2023-10-31T06:46:05;11.00;99.90
26103;DHT22;69760;49.380;8.998;2023-10-31T06:48:31;11.10;99.90
26103;DHT22;69760;49.380;8.998;2023-10-31T06:50:56;11.00;99.90
26103;DHT22;69760;49.380;8.998;2023-10-31T06:53:22;11.00;99.90
26103;DHT22;69760;49.380;8.998;2023-10-31T06:55:47;11.00;99.90
26103;DHT22;69760;49.380;8.998;2023-10-31T06:58:13;11.00;99.90
26103;DHT22;69760;49.380;8.998;2023-10-31T07:00:39;10.90;99.90
26103;DHT22;69760;49.380;8.998;2023-10-31T07:03:04;10.90;99.90
26103;DHT22;69760;49.380;8.998;2023-10-31T07:05:34;10.90;99.90
26103;DHT22;69760;49.380;8.998;2023-10-31T07:08:00;10.80;99.90
26103;DHT22;69760;49.380;8.998;2023-10-31T07:10:26;10.80;99.90
26103;DHT22;69760;49.380;8.998;2023-10-31T07:12:51;10.80;99.90
26103;DHT22;69760;49.380;8.998;2023-10-31T07:15:17;10.80;99.90
26103;DHT22;69760;49.380;8.998;2023-10-31T07:17:42;10.80;99.90
26103;DHT22;69760;49.380;8.998;2023-10-31T07:20:08;10.80;99.90
26103;DHT22;69760;49.380;8.998;2023-10-31T07:22:33;10.80;99.90
26103;DHT22;69760;49.380;8.998;2023-10-31T07:25:00;10.80;99.90
26103;DHT22;69760;49.380;8.998;2023-10-31T07:27:28;10.80;99.90
26103;DHT22;69760;49.380;8.998;2023-10-31T07:29:53;10.90;99.90
26103;DHT22;69760;49.380;8.998;2023-10-31T07:32:19;10.80;99.90
26103;DHT22;69760;49.380;8.998;2023-10-31T07:34:45;10.90;99.90
26103;DHT22;69760;49.380;8.998;2023-10-31T07:37:10;10.90;99.90
26103;DHT22;69760;49.380;8.998;2023-10-31T07:39:36;10.80;99.90
26103;DHT22;69760;49.380;8.998;2023-10-31T07:42:02;10.90;99.90
26103;DHT22;69760;49.380;8.998;2023-10-31T07:44:27;11.00;99.90
26103;DHT22;69760;49.380;8.998;2023-10-31T07:46:53;11.00;99.90
26103;DHT22;69760;49.380;8.998;2023-10-31T07:49:19;11.00;99.90
26103;DHT22;69760;49.380;8.998;2023-10-31T07:51:44;11.10;99.90
26103;DHT22;69760;49.380;8.998;2023-10-31T07:54:11;11.00;99.90
26103;DHT22;69760;49.380;8.998;2023-10-31T07:56:37;11.10;99.90
26103;DHT22;69760;49.380;8.998;2023-10-31T07:59:03;11.10;99.90
26103;DHT22;69760;49.380;8.998;2023-10-31T08:01:29;11.10;99.90
26103;DHT22;69760;49.380;8.998;2023-10-31T08:03:55;11.00;99.90
26103;DHT22;69760;49.380;8.998;2023-10-31T08:06:20;11.10;99.90
26103;DHT22;69760;49.380;8.998;2023-10-31T08:08:46;11.10;99.90
26103;DHT22;69760;49.380;8.998;2023-10-31T08:11:11;11.10;99.90
26103;DHT22;69760;49.380;8.998;2023-10-31T08:13:37;11.10;99.90
26103;DHT22;69760;49.380;8.998;2023-10-31T08:16:07;11.10;99.90
26103;DHT22;69760;49.380;8.998;2023-10-31T08:18:33;11.10;99.90
26103;DHT22;69760;49.380;8.998;2023-10-31T08:20:59;11.10;99.90
26103;DHT22;69760;49.380;8.998;2023-10-31T08:23:25;11.10;99.90
26103;DHT22;69760;49.380;8.998;2023-10-31T08:25:51;11.20;99.90
26103;DHT22;69760;49.380;8.998;2023-10-31T08:28:17;11.20;99.90
26103;DHT22;69760;49.380;8.998;2023-10-31T08:30:42;11.10;99.90
26103;DHT22;69760;49.380;8.998;2023-10-31T08:33:08;11.10;99.90
26103;DHT22;69760;49.380;8.998;2023-10-31T08:35:34;11.10;99.90
26103;DHT22;69760;49.380;8.998;2023-10-31T08:37:59;11.10;99.90
26103;DHT22;69760;49.380;8.998;2023-10-31T08:40:25;11.10;99.90
26103;DHT22;69760;49.380;8.998;2023-10-31T08:42:50;11.10;99.90
26103;DHT22;69760;49.380;8.998;2023-10-31T08:45:16;11.20;99.90
26103;DHT22;69760;49.380;8.998;2023-10-31T08:47:42;11.20;99.90
26103;DHT22;69760;49.380;8.998;2023-10-31T08:50:07;11.20;99.90
26103;DHT22;69760;49.380;8.998;2023-10-31T08:52:37;11.20;99.90
26103;DHT22;69760;49.380;8.998;2023-10-31T08:55:03;11.20;99.90
26103;DHT22;69760;49.380;8.998;2023-10-31T08:57:29;11.20;99.90
26103;DHT22;69760;49.380;8.998;2023-10-31T08:59:55;11.20;99.90
26103;DHT22;69760;49.380;8.998;2023-10-31T09:02:20;11.20;99.90
26103;DHT22;69760;49.380;8.998;2023-10-31T09:04:46;11.20;99.90
26103;DHT22;69760;49.380;8.998;2023-10-31T09:07:11;11.20;99.90
26103;DHT22;69760;49.380;8.998;2023-10-31T09:09:37;11.20;99.90
26103;DHT22;69760;49.380;8.998;2023-10-31T09:12:03;11.30;99.90
26103;DHT22;69760;49.380;8.998;2023-10-31T09:14:29;11.30;99.90
26103;DHT22;69760;49.380;8.998;2023-10-31T09:16:54;11.40;99.90
26103;DHT22;69760;49.380;8.998;2023-10-31T09:19:20;11.40;99.90
26103;DHT22;69760;49.380;8.998;2023-10-31T09:21:45;11.50;99.90
26103;DHT22;69760;49.380;8.998;2023-10-31T09:24:11;11.40;99.90
26103;DHT22;69760;49.380;8.998;2023-10-31T09:26:41;11.50;99.90
26103;DHT22;69760;49.380;8.998;2023-10-31T09:29:06;11.60;99.90
26103;DHT22;69760;49.380;8.998;2023-10-31T09:31:32;11.80;99.90
26103;DHT22;69760;49.380;8.998;2023-10-31T09:33:58;11.80;99.90
26103;DHT22;69760;49.380;8.998;2023-10-31T09:36:23;11.90;99.90
26103;DHT22;69760;49.380;8.998;2023-10-31T09:38:49;12.00;99.90
26103;DHT22;69760;49.380;8.998;2023-10-31T09:41:14;12.00;99.90
26103;DHT22;69760;49.380;8.998;2023-10-31T09:43:40;12.00;99.90
26103;DHT22;69760;49.380;8.998;2023-10-31T09:46:06;12.00;99.90
26103;DHT22;69760;49.380;8.998;2023-10-31T09:48:32;12.10;99.90
26103;DHT22;69760;49.380;8.998;2023-10-31T09:50:59;12.20;99.90
26103;DHT22;69760;49.380;8.998;2023-10-31T09:53:25;12.40;99.90
26103;DHT22;69760;49.380;8.998;2023-10-31T09:55:52;12.50;99.90
26103;DHT22;69760;49.380;8.998;2023-10-31T09:58:19;12.60;99.90
26103;DHT22;69760;49.380;8.998;2023-10-31T10:00:44;12.70;99.90
26103;DHT22;69760;49.380;8.998;2023-10-31T10:03:10;12.80;99.90
26103;DHT22;69760;49.380;8.998;2023-10-31T10:05:36;12.80;99.90
26103;DHT22;69760;49.380;8.998;2023-10-31T10:08:03;12.70;99.90
26103;DHT22;69760;49.380;8.998;2023-10-31T10:10:29;12.80;99.90
26103;DHT22;69760;49.380;8.998;2023-10-31T10:12:55;12.90;99.90
26103;DHT22;69760;49.380;8.998;2023-10-31T10:15:21;13.00;99.90
26103;DHT22;69760;49.380;8.998;2023-10-31T10:17:51;13.00;99.90
26103;DHT22;69760;49.380;8.998;2023-10-31T10:20:17;13.00;99.90
26103;DHT22;69760;49.380;8.998;2023-10-31T10:22:44;13.20;99.90
26103;DHT22;69760;49.380;8.998;2023-10-31T10:25:11;13.30;99.90
26103;DHT22;69760;49.380;8.998;2023-10-31T10:27:43;13.30;99.90
26103;DHT22;69760;49.380;8.998;2023-10-31T10:30:09;13.40;99.90
26103;DHT22;69760;49.380;8.998;2023-10-31T10:32:36;13.50;99.90
26103;DHT22;69760;49.380;8.998;2023-10-31T10:35:01;13.70;99.90
26103;DHT22;69760;49.380;8.998;2023-10-31T10:37:27;13.80;99.90
26103;DHT22;69760;49.380;8.998;2023-10-31T10:39:53;13.90;99.90
26103;DHT22;69760;49.380;8.998;2023-10-31T10:42:32;13.90;99.90
26103;DHT22;69760;49.380;8.998;2023-10-31T10:45:02;13.90;99.90
26103;DHT22;69760;49.380;8.998;2023-10-31T10:47:33;13.90;99.90
26103;DHT22;69760;49.380;8.998;2023-10-31T10:50:00;13.90;99.90
26103;DHT22;69760;49.380;8.998;2023-10-31T10:52:52;13.90;99.90
26103;DHT22;69760;49.380;8.998;2023-10-31T10:55:21;13.90;99.90
26103;DHT22;69760;49.380;8.998;2023-10-31T10:57:52;13.90;99.90
26103;DHT22;69760;49.380;8.998;2023-10-31T11:00:20;13.80;99.90
26103;DHT22;69760;49.380;8.998;2023-10-31T11:02:51;13.70;99.90
26103;DHT22;69760;49.380;8.998;2023-10-31T11:05:18;13.70;99.90
26103;DHT22;69760;49.380;8.998;2023-10-31T11:07:44;13.80;99.90
26103;DHT22;69760;49.380;8.998;2023-10-31T11:10:11;13.80;99.90
26103;DHT22;69760;49.380;8.998;2023-10-31T11:12:37;13.70;99.90
26103;DHT22;69760;49.380;8.998;2023-10-31T11:15:06;13.70;99.90
26103;DHT22;69760;49.380;8.998;2023-10-31T11:17:37;13.70;99.90
26103;DHT22;69760;49.380;8.998;2023-10-31T11:20:04;13.60;99.90
26103;DHT22;69760;49.380;8.998;2023-10-31T11:22:43;13.60;99.90
26103;DHT22;69760;49.380;8.998;2023-10-31T11:25:13;13.60;99.90
26103;DHT22;69760;49.380;8.998;2023-10-31T11:27:39;13.70;99.90
26103;DHT22;69760;49.380;8.998;2023-10-31T11:30:08;13.70;99.90
26103;DHT22;69760;49.380;8.998;2023-10-31T11:32:49;13.80;99.90
26103;DHT22;69760;49.380;8.998;2023-10-31T11:35:17;13.80;99.90
26103;DHT22;69760;49.380;8.998;2023-10-31T11:37:43;13.90;99.90
26103;DHT22;69760;49.380;8.998;2023-10-31T11:42:41;13.80;99.90
26103;DHT22;69760;49.380;8.998;2023-10-31T11:45:10;13.80;99.90
26103;DHT22;69760;49.380;8.998;2023-10-31T11:47:49;13.90;99.90
26103;DHT22;69760;49.380;8.998;2023-10-31T11:50:16;13.90;99.90
26103;DHT22;69760;49.380;8.998;2023-10-31T11:52:41;13.90;99.90
26103;DHT22;69760;49.380;8.998;2023-10-31T11:55:10;14.00;99.90
26103;DHT22;69760;49.380;8.998;2023-10-31T11:57:37;14.00;99.90
26103;DHT22;69760;49.380;8.998;2023-10-31T12:00:04;13.90;99.90
26103;DHT22;69760;49.380;8.998;2023-10-31T12:02:30;14.00;99.90
26103;DHT22;69760;49.380;8.998;2023-10-31T12:05:11;14.00;99.90
26103;DHT22;69760;49.380;8.998;2023-10-31T12:07:45;14.10;99.90
26103;DHT22;69760;49.380;8.998;2023-10-31T12:10:11;14.10;99.90
26103;DHT22;69760;49.380;8.998;2023-10-31T12:12:37;14.20;99.90
26103;DHT22;69760;49.380;8.998;2023-10-31T12:15:09;14.30;99.90
26103;DHT22;69760;49.380;8.998;2023-10-31T12:17:35;14.40;99.90
26103;DHT22;69760;49.380;8.998;2023-10-31T12:20:05;14.50;99.90
26103;DHT22;69760;49.380;8.998;2023-10-31T12:22:31;14.60;99.90
26103;DHT22;69760;49.380;8.998;2023-10-31T12:25:03;14.70;99.90
26103;DHT22;69760;49.380;8.998;2023-10-31T12:27:49;14.70;99.90
26103;DHT22;69760;49.380;8.998;2023-10-31T12:30:17;14.70;99.90
26103;DHT22;69760;49.380;8.998;2023-10-31T12:32:44;14.80;99.90
26103;DHT22;69760;49.380;8.998;2023-10-31T12:35:15;14.90;99.90
26103;DHT22;69760;49.380;8.998;2023-10-31T12:37:45;15.00;99.90
26103;DHT22;69760;49.380;8.998;2023-10-31T12:40:19;15.20;99.90
26103;DHT22;69760;49.380;8.998;2023-10-31T12:42:46;15.30;99.90
26103;DHT22;69760;49.380;8.998;2023-10-31T12:45:12;15.30;99.90
26103;DHT22;69760;49.380;8.998;2023-10-31T12:47:38;15.40;99.90
26103;DHT22;69760;49.380;8.998;2023-10-31T12:52:48;15.60;99.90
26103;DHT22;69760;49.380;8.998;2023-10-31T12:55:15;15.70;99.90
26103;DHT22;69760;49.380;8.998;2023-10-31T12:57:41;15.70;99.90
26103;DHT22;69760;49.380;8.998;2023-10-31T13:00:07;15.70;99.90
26103;DHT22;69760;49.380;8.998;2023-10-31T13:02:36;15.70;99.90
26103;DHT22;69760;49.380;8.998;2023-10-31T13:05:15;15.60;99.90
26103;DHT22;69760;49.380;8.998;2023-10-31T13:07:50;15.60;99.90
26103;DHT22;69760;49.380;8.998;2023-10-31T13:10:18;15.70;99.90
26103;DHT22;69760;49.380;8.998;2023-10-31T13:12:46;15.80;99.90
26103;DHT22;69760;49.380;8.998;2023-10-31T13:15:16;16.00;99.90
26103;DHT22;69760;49.380;8.998;2023-10-31T13:17:42;16.20;99.90
26103;DHT22;69760;49.380;8.998;2023-10-31T13:20:09;16.30;99.90
26103;DHT22;69760;49.380;8.998;2023-10-31T13:22:36;16.60;99.90
26103;DHT22;69760;49.380;8.998;2023-10-31T13:25:02;16.80;99.90
26103;DHT22;69760;49.380;8.998;2023-10-31T13:27:31;17.00;99.50
26103;DHT22;69760;49.380;8.998;2023-10-31T13:29:57;17.10;99.50
26103;DHT22;69760;49.380;8.998;2023-10-31T13:32:22;17.20;99.90
26103;DHT22;69760;49.380;8.998;2023-10-31T13:34:48;16.90;99.20
26103;DHT22;69760;49.380;8.998;2023-10-31T13:37:14;16.40;99.50
26103;DHT22;69760;49.380;8.998;2023-10-31T13:39:39;16.10;99.90
26103;DHT22;69760;49.380;8.998;2023-10-31T13:42:05;15.90;99.90
26103;DHT22;69760;49.380;8.998;2023-10-31T13:44:31;15.70;99.90
26103;DHT22;69760;49.380;8.998;2023-10-31T13:46:56;15.50;99.90
26103;DHT22;69760;49.380;8.998;2023-10-31T13:49:22;15.30;99.90
26103;DHT22;69760;49.380;8.998;2023-10-31T13:51:47;15.20;99.90
26103;DHT22;69760;49.380;8.998;2023-10-31T13:54:14;15.10;99.90
26103;DHT22;69760;49.380;8.998;2023-10-31T13:56:40;15.20;99.90
26103;DHT22;69760;49.380;8.998;2023-10-31T13:59:05;15.90;99.90
26103;DHT22;69760;49.380;8.998;2023-10-31T14:01:31;17.50;99.70
26103;DHT22;69760;49.380;8.998;2023-10-31T14:03:57;17.80;98.30
26103;DHT22;69760;49.380;8.998;2023-10-31T14:06:22;17.70;97.90
26103;DHT22;69760;49.380;8.998;2023-10-31T14:08:48;17.40;98.00
26103;DHT22;69760;49.380;8.998;2023-10-31T14:11:13;17.00;99.10
26103;DHT22;69760;49.380;8.998;2023-10-31T14:13:39;16.80;99.90
26103;DHT22;69760;49.380;8.998;2023-10-31T14:16:06;16.40;99.90
26103;DHT22;69760;49.380;8.998;2023-10-31T14:18:32;16.10;99.90
26103;DHT22;69760;49.380;8.998;2023-10-31T14:20:57;15.80;99.90
26103;DHT22;69760;49.380;8.998;2023-10-31T14:23:23;15.70;99.90
26103;DHT22;69760;49.380;8.998;2023-10-31T14:25:50;15.50;99.90
26103;DHT22;69760;49.380;8.998;2023-10-31T14:28:15;15.40;99.90
26103;DHT22;69760;49.380;8.998;2023-10-31T14:30:41;15.30;99.90
26103;DHT22;69760;49.380;8.998;2023-10-31T14:33:06;15.30;99.90
26103;DHT22;69760;49.380;8.998;2023-10-31T14:35:32;15.20;99.90
26103;DHT22;69760;49.380;8.998;2023-10-31T14:37:58;15.10;99.90
26103;DHT22;69760;49.380;8.998;2023-10-31T14:40:23;15.00;99.90
26103;DHT22;69760;49.380;8.998;2023-10-31T14:42:49;15.00;99.90
26103;DHT22;69760;49.380;8.998;2023-10-31T14:45:15;15.10;99.90
26103;DHT22;69760;49.380;8.998;2023-10-31T14:47:40;15.20;99.90
26103;DHT22;69760;49.380;8.998;2023-10-31T14:50:06;15.10;99.90
26103;DHT22;69760;49.380;8.998;2023-10-31T14:52:32;15.00;99.90
26103;DHT22;69760;49.380;8.998;2023-10-31T14:54:57;14.90;99.90
26103;DHT22;69760;49.380;8.998;2023-10-31T14:57:23;14.70;99.90
26103;DHT22;69760;49.380;8.998;2023-10-31T14:59:49;14.60;99.90
26103;DHT22;69760;49.380;8.998;2023-10-31T15:02:14;14.60;99.90
26103;DHT22;69760;49.380;8.998;2023-10-31T15:04:40;14.50;99.90
26103;DHT22;69760;49.380;8.998;2023-10-31T15:07:05;14.50;99.90
26103;DHT22;69760;49.380;8.998;2023-10-31T15:09:31;14.50;99.90
26103;DHT22;69760;49.380;8.998;2023-10-31T15:11:56;14.30;99.90
26103;DHT22;69760;49.380;8.998;2023-10-31T15:14:22;14.20;99.90
26103;DHT22;69760;49.380;8.998;2023-10-31T15:16:48;14.10;99.90
26103;DHT22;69760;49.380;8.998;2023-10-31T15:19:13;14.00;99.90
26103;DHT22;69760;49.380;8.998;2023-10-31T15:21:39;14.00;99.90
26103;DHT22;69760;49.380;8.998;2023-10-31T15:24:05;13.90;99.90
26103;DHT22;69760;49.380;8.998;2023-10-31T15:26:33;13.90;99.90
26103;DHT22;69760;49.380;8.998;2023-10-31T15:28:58;13.80;99.90
26103;DHT22;69760;49.380;8.998;2023-10-31T15:31:24;13.60;99.90
26103;DHT22;69760;49.380;8.998;2023-10-31T15:33:50;13.50;99.90
26103;DHT22;69760;49.380;8.998;2023-10-31T15:36:15;13.50;99.90
26103;DHT22;69760;49.380;8.998;2023-10-31T15:38:41;13.40;99.90
26103;DHT22;69760;49.380;8.998;2023-10-31T15:41:07;13.40;99.90
26103;DHT22;69760;49.380;8.998;2023-10-31T15:43:33;13.40;99.90